Tiempo atmosférico en la estación meteorológica de Agulo, Santa Cruz de Tenerife (765 m.)



Fecha
DESCASC
Temp. máxima en grados centígrados (hora)
DESCASC
Temp. mínima en grados centígrados (hora)
DESCASC
Temp. media en grados centígrados
DESCASC
Racha de viento máxima en m/sg (hora)
DESCASC
Velocidad máxima media en intervalos de 10 minutos(hora)
DESCASC
Precipitaciones diarias en mm
DESCASC
Precipitaciones de 00:00 a 06:00 en mm
DESCASC
Precipitaciones de 06:00 a 12:00 en mm
DESCASC
Precipitaciones de 12:00 a 18:00 en mm
DESCASC
Precipitaciones de 18:00 a 24:00 en mm
DESCASC
23-05-2020 33.4 (19:00) 13.6 (03:50) 23.5 8.61 (22:20) 3.06 (14:20) 0 0 0 0 0
22-05-2020 21.2 (16:20) 11.9 (05:00) 16.6 5.28 (11:30) 2.5 (11:30) 0 0 0 0 0
21-05-2020 19.8 (14:20) 12.5 (00:00) 16.1 6.39 (14:20) 2.78 (14:00) 0 0 0 0 0
20-05-2020 22.9 (17:40) 13.2 (00:00) 18 6.94 (22:10) 1.94 (05:20) 0 0 0 0 0
19-05-2020 15.7 (13:00) 13 (04:20) 14.3 7.78 (06:50) 2.5 (22:40) 0 0 0 0 0
18-05-2020 17.6 (13:30) 11.1 (00:00) 14.4 8.89 (08:00) 3.33 (08:00) 0 0 0 0 0
17-05-2020 17.2 (11:10) 10.8 (00:00) 14 8.06 (11:40) 4.72 (11:10) 0 0 0 0 0
16-05-2020 20.3 (16:00) 11.7 (00:00) 16 5.83 (03:30) 2.5 (05:10) 0 0 0 0 0
15-05-2020 15.1 (16:20) 10.9 (06:30) 13 11.11 (11:10) 3.89 (01:50) 0.2 0 0 0.2 0
14-05-2020 17.1 (11:20) 10.5 (00:00) 13.8 12.22 (21:50) 4.72 (21:50) 0 0 0 0 0
13-05-2020 18.5 (12:20) 11.9 (00:00) 15.2 10 (22:00) 3.61 (12:30) 3 2.8 0 0.2 0
12-05-2020 18.2 (13:50) 12 (03:30) 15.1 10 (17:20) 3.89 (17:40) 0 0 0 0 0
11-05-2020 22.5 (17:10) 12.9 (00:00) 17.7 9.17 (19:40) 3.89 (16:50) 0 0 0 0 0
10-05-2020 19.7 (14:40) 12.8 (00:00) 16.3 8.61 (16:50) 2.78 (16:10) 0 0 0 0 0
09-05-2020 16.8 (16:30) 12.5 (02:20) 14.6 8.61 (21:40) 3.33 (02:30) 8.4 0 3 5.4 0
08-05-2020 22 (15:50) 11.9 (00:00) 16.9 5 (12:50) 2.5 (12:40) 0 0 0 0 0
07-05-2020 19.8 (14:40) 12.4 (00:00) 16.1 6.39 (13:40) 2.78 (14:30) 0 0 0 0 0
06-05-2020 19.6 (15:30) 12.7 (00:00) 16.2 5 (16:20) 2.22 (00:50) 0 0 0 0 0
05-05-2020 19.7 (15:10) 10.9 (00:00) 15.3 6.39 (13:50) 2.78 (08:10) 0.2 0 0.2 0 0
04-05-2020 15.6 (11:30) 13 (00:00) 14.3 14.72 (01:30) 10 (01:10) 3.2 0 0 3.2 0
03-05-2020 24.1 (15:40) 11.7 (05:20) 17.9 15.83 (23:40) 11.11 (21:20) 0 0 0 0 0
02-05-2020 23.4 (16:10) 12.5 (07:50) 17.9 7.5 (06:40) 5.83 (06:40) 0 0 0 0 0
01-05-2020 21.4 (15:10) 11.6 (00:00) 16.5 5.28 (15:00) 3.06 (08:30) 0 0 0 0 0
30-04-2020 19.4 (17:10) 11.7 (02:30) 15.5 6.39 (15:40) 2.78 (13:00) 0 0 0 0 0
29-04-2020 20.1 (17:30) 12.3 (00:00) 16.2 5.83 (20:40) 2.5 (14:50) 0 0 0 0 0
28-04-2020 19.9 (16:10) 10.8 (07:30) 15.3 5.83 (19:40) 3.06 (19:00) 0 0 0 0 0
27-04-2020 21.2 (16:30) 10.8 (00:00) 16 6.39 (15:50) 2.78 (06:40) 0 0 0 0 0

Gráficas

Temp. máximas Temp. mínimas Temp. medias Precipitaciones Rachas de viento máximas Velocidades máximas media en intervalos de 10 minutos

Datos horarios

Fecha y hora oficial Temperatura (ºC) Velocidad del viento (km/h) Dirección del viento Racha (km/h) Dirección de racha Precipitación (mm) Presión (hPa) Tendencia (hPa) Humedad (%)
2020-05-26 23:00:00 21.5 5 Noroeste 12 Norte 0 -- -- 30
2020-05-26 22:00:00 21.6 6 Noroeste 12 Norte 0 -- -- 31
2020-05-26 21:00:00 23.5 6 Norte 13 Norte 0 -- -- 28
2020-05-26 20:00:00 27.6 9 Norte 22 Noroeste 0 -- -- 21
2020-05-26 19:00:00 29.5 14 Norte 23 Noroeste 0 -- -- 19
2020-05-26 18:00:00 31.5 15 Norte 23 Noroeste 0 -- -- 18
2020-05-26 17:00:00 32.1 9 Norte 17 Norte 0 -- -- 21
2020-05-26 16:00:00 31.9 8 Norte 15 Norte 0 -- -- 21
2020-05-26 15:00:00 32.9 3 Sudeste 12 Sur 0 -- -- 19
2020-05-26 14:00:00 32 4 Norte 14 Noroeste 0 -- -- 19
2020-05-26 13:00:00 30.4 4 Noroeste 10 Norte 0 -- -- 24
2020-05-26 12:00:00 29.5 4 Nordeste 13 Norte 0 -- -- 23
2020-05-26 11:00:00 29.3 5 Norte 13 Norte 0 -- -- 19
2020-05-26 10:00:00 28.3 8 Norte 12 Norte 0 -- -- 20
2020-05-26 09:00:00 26.1 5 Norte 13 Sudoeste 0 -- -- 21
2020-05-26 08:00:00 23.3 6 Sudoeste 15 Sudoeste 0 -- -- 23
2020-05-26 07:00:00 21.6 8 Sudoeste 15 Sudoeste 0 -- -- 23
2020-05-26 06:00:00 22 6 Sudoeste 16 Este 0 -- -- 23
2020-05-26 05:00:00 22.2 5 Sur 16 Sudoeste 0 -- -- 23
2020-05-26 04:00:00 22 6 Sur 15 Sudeste 0 -- -- 24
2020-05-26 03:00:00 21.7 5 Sudoeste 13 Sudoeste 0 -- -- 25
2020-05-26 02:00:00 21.8 5 Sur 16 Sudoeste 0 -- -- 25
2020-05-26 01:00:00 21.5 7 Sudoeste 16 Sudoeste 0 -- -- 27
2020-05-26 00:00:00 22 4 Sur 19 Sudoeste 0 -- -- 27
2020-05-25 23:00:00 21.7 7 Sudoeste 13 Sudoeste 0 -- -- 29
2020-05-25 22:00:00 21.7 5 Sur 12 Sudeste 0 -- -- 30
2020-05-25 21:00:00 22.5 7 Sudeste 16 Este 0 -- -- 29
2020-05-25 20:00:00 26.3 2 Sudeste 11 Norte 0 -- -- 26
2020-05-25 19:00:00 27.8 6 Norte 12 Norte 0 -- -- 26
2020-05-25 18:00:00 29.2 7 Norte 14 Norte 0 -- -- 25
2020-05-25 17:00:00 30 7 Norte 14 Noroeste 0 -- -- 26
2020-05-25 16:00:00 30.3 5 Norte 10 Noroeste 0 -- -- 26
2020-05-25 15:00:00 30.9 3 Este 10 Sudeste 0 -- -- 30
2020-05-25 14:00:00 33.4 6 Sudeste 15 Este 0 -- -- 16
2020-05-25 13:00:00 32.9 7 Sudeste 14 Sudeste 0 -- -- 15
2020-05-25 12:00:00 30 4 Este 12 Sudeste 0 -- -- 18
2020-05-25 11:00:00 27.5 4 Norte 8 Noroeste 0 -- -- 27
2020-05-25 10:00:00 25.5 4 Sur 15 Este 0 -- -- 30
2020-05-25 09:00:00 22.8 5 Sur 12 Sudeste 0 -- -- 34
2020-05-25 08:00:00 20.5 3 Oeste 14 Sudeste 0 -- -- 38
2020-05-25 07:00:00 20.8 6 Sudeste 17 Sur 0 -- -- 31
2020-05-25 06:00:00 20.6 5 Sur 15 Sudoeste 0 -- -- 33
2020-05-25 05:00:00 20 8 Sudeste 26 Sudeste 0 -- -- 36
2020-05-25 04:00:00 21.1 9 Este 28 Nordeste 0 -- -- 33
2020-05-25 03:00:00 20.2 7 Sudeste 21 Sudeste 0 -- -- 36
2020-05-25 02:00:00 20.1 12 Este 23 Este 0 -- -- 43
2020-05-25 01:00:00 20.4 4 Sudoeste 15 Este 0 -- -- 35
2020-05-25 00:00:00 21.8 5 Sudeste 10 Nordeste 0 -- -- 36
2020-05-24 23:00:00 23.1 8 Nordeste 9 Nordeste 0 -- -- 36
2020-05-24 22:00:00 24.4 3 Sudeste 13 Sudoeste 0 -- -- 26
2020-05-24 21:00:00 25.4 4 Sur 8 Este 0 -- -- 25
2020-05-24 20:00:00 34.1 4 Norte 8 Este 0 -- -- 16
2020-05-24 19:00:00 -- 4 Este 10 Este 0 -- -- 11
2020-05-24 18:00:00 38.2 3 Sudeste 13 Este 0 -- -- 11
2020-05-24 17:00:00 35.9 6 Sudeste 12 Sudeste 0 -- -- 18
2020-05-24 16:00:00 33.3 5 Sudeste 13 Este 0 -- -- 27
2020-05-24 15:00:00 29.5 5 Norte 13 Norte 0 -- -- 34
2020-05-24 14:00:00 30.8 10 Sudeste 21 Sudeste 0 -- -- 18
2020-05-24 13:00:00 30.1 4 Sur 15 Sur 0 -- -- 30
2020-05-24 12:00:00 27.3 4 Noroeste 19 Nordeste 0 -- -- 23
2020-05-24 11:00:00 24.8 6 Nordeste 31 Sudeste 0 -- -- 28
2020-05-24 10:00:00 23 11 Este 30 Este 0 -- -- 32
2020-05-24 09:00:00 21 8 Este 30 Nordeste 0 -- -- 38
2020-05-24 08:00:00 19.2 11 Este 33 Nordeste 0 -- -- 48
2020-05-24 07:00:00 16.9 7 Nordeste 27 Este 0 -- -- 67
2020-05-24 06:00:00 16.3 10 Norte 39 Nordeste 0 -- -- 71
2020-05-24 05:00:00 15.5 7 Norte 33 Nordeste 0 -- -- 83
2020-05-24 04:00:00 15.1 8 Noroeste 17 Oeste 0 -- -- 86
2020-05-24 03:00:00 14.6 5 Noroeste 15 Noroeste 0 -- -- 96
2020-05-24 02:00:00 15 6 Noroeste 16 Oeste 0 -- -- 89
2020-05-24 01:00:00 15.6 6 Nordeste 18 Sudoeste 0 -- -- 88
2020-05-24 00:00:00 18.8 4 Oeste 26 Nordeste 0 -- -- 60
2020-05-23 23:00:00 19.7 6 Sur 31 Sudeste 0 -- -- 45
2020-05-23 22:00:00 19.7 9 Sudeste 25 Sur 0 -- -- 50
2020-05-23 21:00:00 19.4 7 Sudeste 23 Este 0 -- -- 55
2020-05-23 20:00:00 26.9 6 Sur 15 Este 0 -- -- 41
2020-05-23 19:00:00 33.4 3 Sur 9 Oeste 0 -- -- 40
2020-05-23 18:00:00 20.2 3 Noroeste 13 Nordeste 0 -- -- 82
2020-05-23 17:00:00 19.1 4 Nordeste 15 Norte 0 -- -- 86
2020-05-23 16:00:00 20.5 8 Norte 16 Norte 0 -- -- 79
2020-05-23 15:00:00 20.2 5 Nordeste 18 Nordeste 0 -- -- 80
2020-05-23 14:00:00 19.1 7 Norte 18 Norte 0 -- -- 84
2020-05-23 13:00:00 17.6 8 Norte 15 Nordeste 0 -- -- 86
2020-05-23 12:00:00 18.4 4 Sudeste 13 Sudeste 0 -- -- 85
2020-05-23 11:00:00 16.6 5 Sudeste 14 Sudeste 0 -- -- 96
2020-05-23 10:00:00 15.2 3 Este 11 Este 0 -- -- 100
2020-05-23 09:00:00 14.4 3 Este 11 Nordeste 0 -- -- 100
2020-05-23 08:00:00 13.8 4 Sudeste 12 Nordeste 0 -- -- 100
2020-05-23 07:00:00 13.8 2 Sudeste 13 Este 0 -- -- 100
2020-05-23 06:00:00 13.7 4 Sudeste 13 Este 0 -- -- 100
2020-05-23 05:00:00 13.7 4 Sur 15 Nordeste 0 -- -- 100
2020-05-23 04:00:00 13.6 4 Sur 13 Este 0 -- -- 100
2020-05-23 03:00:00 13.7 4 Sudoeste 17 Sur 0 -- -- 99
2020-05-23 02:00:00 13.8 3 Sur 13 Sur 0 -- -- 99
2020-05-23 01:00:00 13.9 4 Sudoeste 15 Este 0 -- -- 98
2020-05-23 00:00:00 14.1 5 Sur 13 Sudeste 0 -- -- 98
2020-05-22 23:00:00 14 4 Este 13 Sur 0 -- -- 97
2020-05-22 22:00:00 14 3 Sudeste 13 Este 0 -- -- 96
2020-05-22 21:00:00 14.4 4 Sudoeste 12 Sudeste 0 -- -- 94
2020-05-22 20:00:00 14.9 4 Sudeste 14 Este 0 -- -- 91
2020-05-22 19:00:00 16.3 4 Este 12 Norte 0 -- -- 86
2020-05-22 18:00:00 18.5 6 Noroeste 12 Noroeste 0 -- -- 76
2020-05-22 17:00:00 20.3 5 Sudeste 12 Sudeste 0 -- -- 69
2020-05-22 16:00:00 18.8 4 Sudeste 12 Nordeste 0 -- -- 76
2020-05-22 15:00:00 17.7 4 Este 18 Norte 0 -- -- 81
2020-05-22 14:00:00 18.4 5 Norte 15 Nordeste 0 -- -- 76
2020-05-22 13:00:00 17 6 Sudeste 16 Sudeste 0 -- -- 81
2020-05-22 12:00:00 15.9 6 Sudeste 19 Sudeste 0 -- -- 84
2020-05-22 11:00:00 14.6 7 Sudeste 16 Sudeste 0 -- -- 89
2020-05-22 10:00:00 13.6 4 Sudeste 15 Sudeste 0 -- -- 95
2020-05-22 09:00:00 12.6 3 Este 12 Sur 0 -- -- 96
2020-05-22 08:00:00 12.3 5 Sudeste 14 Norte 0 -- -- 97
2020-05-22 07:00:00 12 4 Este 12 Sudeste 0 -- -- 97
2020-05-22 06:00:00 11.9 4 Sudeste 11 Sudeste 0 -- -- 97
2020-05-22 05:00:00 11.9 3 Sur 13 Sudeste 0 -- -- 97
2020-05-22 04:00:00 12.2 5 Sudeste 12 Este 0 -- -- 97
2020-05-22 03:00:00 12.2 3 Sudeste 13 Sudeste 0 -- -- 96
2020-05-22 02:00:00 12.4 4 Sudeste 16 Sudeste 0 -- -- 96
2020-05-22 01:00:00 12.6 8 Sudeste 18 Sudeste 0 -- -- 95
2020-05-22 00:00:00 12.7 3 Sudeste 13 Este 0 -- -- 95
2020-05-21 23:00:00 12.9 6 Sudeste 16 Sudeste 0 -- -- 94
2020-05-21 22:00:00 13.2 5 Sudeste 12 Sudeste 0 -- -- 93
2020-05-21 21:00:00 13.4 3 Sudeste 12 Sudeste 0 -- -- 93
2020-05-21 20:00:00 13.8 5 Sudeste 17 Sudeste 0 -- -- 91
2020-05-21 19:00:00 14.5 7 Este 14 Este 0 -- -- 86
2020-05-21 18:00:00 16 4 Nordeste 12 Nordeste 0 -- -- 81
2020-05-21 17:00:00 18.5 5 Nordeste 19 Nordeste 0 -- -- 71
2020-05-21 16:00:00 18.7 5 Este 19 Sur 0 -- -- 71
2020-05-21 15:00:00 19.8 9 Este 23 Este 0 -- -- 70
2020-05-21 14:00:00 19.4 10 Sudeste 19 Sudeste 0 -- -- 70
2020-05-21 13:00:00 18.3 9 Este 18 Sudeste 0 -- -- 72
2020-05-21 12:00:00 17.7 9 Este 17 Este 0 -- -- 72
2020-05-21 11:00:00 15.3 4 Este 14 Sudeste 0 -- -- 84
2020-05-21 10:00:00 14.3 5 Sudeste 12 Sudeste 0 -- -- 91
2020-05-21 09:00:00 13.2 4 Sudeste 10 Sur 0 -- -- 97
2020-05-21 08:00:00 12.6 6 Sudeste 10 Este 0 -- -- 99
2020-05-21 07:00:00 12.6 3 Sudeste 18 Este 0 -- -- 99
2020-05-21 06:00:00 12.8 2 Este 14 Este 0 -- -- 99
2020-05-21 05:00:00 12.8 4 Sudeste 17 Este 0 -- -- 99
2020-05-21 04:00:00 13 7 Este 16 Este 0 -- -- 99
2020-05-21 03:00:00 12.9 4 Sudoeste 10 Oeste 0 -- -- 98
2020-05-21 02:00:00 13.3 4 Este 14 Sudeste 0 -- -- 98
2020-05-21 01:00:00 13.3 4 Sur 15 Nordeste 0 -- -- 96
2020-05-21 00:00:00 13.8 4 Sur 14 Este 0 -- -- 96
2020-05-20 23:00:00 14 5 Sur 25 Este 0 -- -- 96
2020-05-20 22:00:00 14.2 5 Sudeste 16 Sudeste 0 -- -- 96
2020-05-20 21:00:00 14.7 3 Sudoeste 10 Norte 0 -- -- 95
2020-05-20 20:00:00 15.7 3 Sudoeste 12 Sur 0 -- -- 89
2020-05-20 19:00:00 16.7 5 Norte 14 Este 0 -- -- 86
2020-05-20 18:00:00 22.6 4 Norte 13 Norte 0 -- -- 62
2020-05-20 17:00:00 21.1 4 Noroeste 13 Sudeste 0 -- -- 69
2020-05-20 16:00:00 20.1 6 Noroeste 13 Noroeste 0 -- -- 73
2020-05-20 15:00:00 20.2 5 Sudeste 17 Sudeste 0 -- -- 73
2020-05-20 14:00:00 19.1 5 Sudoeste 24 Este 0 -- -- 75
2020-05-20 13:00:00 17.7 5 Este 14 Nordeste 0 -- -- 81
2020-05-20 12:00:00 16.7 4 Este 15 Este 0 -- -- 84
2020-05-20 11:00:00 16.2 4 Este 15 Nordeste 0 -- -- 94
2020-05-20 10:00:00 14.5 5 Este 16 Sudeste 0 -- -- 100
2020-05-20 09:00:00 13.8 4 Sudeste 12 Sudeste 0 -- -- 100
2020-05-20 08:00:00 13.2 4 Sudeste 18 Este 0 -- -- 100
2020-05-20 07:00:00 13.3 5 Este 20 Norte 0 -- -- 100
2020-05-20 06:00:00 13.4 3 Sur 14 Este 0 -- -- 100
2020-05-20 05:00:00 13.2 5 Sudoeste 18 Nordeste 0 -- -- 100
2020-05-20 04:00:00 13.5 6 Sur 18 Nordeste 0 -- -- 100
2020-05-20 03:00:00 13.5 4 Sur 12 Nordeste 0 -- -- 100
2020-05-20 02:00:00 13.6 4 Sudeste 16 Norte 0 -- -- 100
2020-05-20 01:00:00 13.7 5 Sudoeste 16 Este 0 -- -- 100
2020-05-20 00:00:00 13.8 7 Sudeste 16 Nordeste 0 -- -- 100
2020-05-19 23:00:00 13.7 4 Este 21 Nordeste 0 -- -- 100
2020-05-19 22:00:00 13.7 6 Sur 19 Sudeste 0 -- -- 100
2020-05-19 21:00:00 13.7 4 Sur 22 Nordeste 0 -- -- 99
2020-05-19 20:00:00 13.9 5 Sudeste 21 Este 0 -- -- 99
2020-05-19 19:00:00 14.2 5 Sudoeste 20 Sudeste 0 -- -- 99
2020-05-19 18:00:00 14.4 5 Este 22 Nordeste 0 -- -- 99
2020-05-19 17:00:00 14.4 5 Sur 21 Este 0 -- -- 98
2020-05-19 16:00:00 14.8 5 Sudeste 22 Sudeste 0 -- -- 98
2020-05-19 15:00:00 15 5 Sudoeste 22 Norte 0 -- -- 94
2020-05-19 14:00:00 15.3 8 Sur 28 Noroeste 0 -- -- 94
2020-05-19 13:00:00 15.7 4 Sudoeste 16 Este 0 -- -- 92
2020-05-19 12:00:00 14.8 5 Sudeste 15 Sur 0 -- -- 97
2020-05-19 11:00:00 14.4 5 Sur 24 Sudeste 0 -- -- 100
2020-05-19 10:00:00 13.7 6 Sur 22 Nordeste 0 -- -- 100
2020-05-19 09:00:00 13.4 5 Sudoeste 27 Este 0 -- -- 100
2020-05-19 08:00:00 13.4 6 Nordeste 21 Este 0 -- -- 100
2020-05-19 07:00:00 13.2 6 Este 28 Norte 0 -- -- 100
2020-05-19 06:00:00 13.3 5 Sur 23 Este 0 -- -- 100
2020-05-19 05:00:00 13.4 7 Sur 17 Este 0 -- -- 100
2020-05-19 04:00:00 13.3 5 Sudeste 14 Este 0 -- -- 100
2020-05-19 03:00:00 13.3 5 Este 16 Sudeste 0 -- -- 100
2020-05-19 02:00:00 13.2 3 Sur 16 Nordeste 0 -- -- 100
2020-05-19 01:00:00 13.3 4 Sur 19 Este 0 -- -- 100
2020-05-19 00:00:00 13.4 4 Sur 16 Este 0 -- -- 100
2020-05-18 23:00:00 13.4 7 Sudeste 22 Sudeste 0 -- -- 100
2020-05-18 22:00:00 13.4 6 Sudeste 21 Nordeste 0 -- -- 100
2020-05-18 21:00:00 13.5 4 Sur 17 Sudeste 0 -- -- 99
2020-05-18 20:00:00 13.5 5 Sudoeste 19 Sudeste 0 -- -- 99
2020-05-18 19:00:00 13.7 6 Este 17 Nordeste 0 -- -- 98
2020-05-18 18:00:00 13.9 5 Sudeste 16 Sudeste 0 -- -- 97
2020-05-18 17:00:00 14.4 4 Sur 25 Noroeste 0 -- -- 96
2020-05-18 16:00:00 14.4 8 Sudoeste 22 Sudeste 0 -- -- 92
2020-05-18 15:00:00 14.6 7 Sudeste 20 Sudeste 0 -- -- 90
2020-05-18 14:00:00 16.1 6 Este 18 Sudoeste 0 -- -- 84
2020-05-18 13:00:00 17.1 6 Este 22 Sudeste 0 -- -- 79
2020-05-18 12:00:00 15.9 8 Este 19 Este 0 -- -- 82
2020-05-18 11:00:00 15.7 5 Este 23 Este 0 -- -- 84
2020-05-18 10:00:00 14.4 11 Sudeste 21 Sudeste 0 -- -- 93
2020-05-18 09:00:00 12.8 8 Este 23 Nordeste 0 -- -- 100
2020-05-18 08:00:00 12.7 12 Este 32 Este 0 -- -- 99
2020-05-18 07:00:00 12.4 8 Este 17 Sudeste 0 -- -- 99
2020-05-18 06:00:00 11.8 2 Sudeste 14 Noroeste 0 -- -- 98
2020-05-18 05:00:00 11.1 5 Noroeste 10 Nordeste 0 -- -- 97
2020-05-18 04:00:00 11.6 3 Nordeste 14 Norte 0 -- -- 98
2020-05-18 03:00:00 11.9 5 Este 12 Sudeste 0 -- -- 97
2020-05-18 02:00:00 11.3 4 Sudeste 12 Nordeste 0 -- -- 96
2020-05-18 01:00:00 11.7 5 Sudeste 16 Este 0 -- -- 94
2020-05-18 00:00:00 12.1 4 Este 18 Sudeste 0 -- -- 92
2020-05-17 23:00:00 12.1 6 Este 16 Este 0 -- -- 90
2020-05-17 22:00:00 12.5 6 Sur 18 Sudeste 0 -- -- 91
2020-05-17 21:00:00 12.8 8 Sudeste 23 Este 0 -- -- 87
2020-05-17 20:00:00 13.2 9 Sudeste 19 Este 0 -- -- 89
2020-05-17 19:00:00 13.4 7 Sudeste 20 Este 0 -- -- 86
2020-05-17 18:00:00 13.6 8 Este 18 Este 0 -- -- 89
2020-05-17 17:00:00 14.4 4 Sudeste 17 Sudeste 0 -- -- 84
2020-05-17 16:00:00 15.8 8 Sudeste 19 Sudeste 0 -- -- 77
2020-05-17 15:00:00 14.2 5 Sudeste 18 Sudeste 0 -- -- 82
2020-05-17 14:00:00 14.7 9 Sudeste 21 Este 0 -- -- 84
2020-05-17 13:00:00 14.6 10 Sudeste 23 Este 0 -- -- 83
2020-05-17 12:00:00 15.4 14 Sudeste 29 Sudeste 0 -- -- 78
2020-05-17 11:00:00 16.9 16 Sudeste 28 Sudeste 0 -- -- 72
2020-05-17 10:00:00 13.9 12 Sudeste 22 Sudeste 0 -- -- 72
2020-05-17 09:00:00 12.5 5 Sudeste 12 Este 0 -- -- 89
2020-05-17 08:00:00 12 3 Nordeste 8 Este 0 -- -- 94
2020-05-17 07:00:00 11.8 4 Este 15 Sudeste 0 -- -- 90
2020-05-17 06:00:00 11.7 7 Este 22 Nordeste 0 -- -- 89
2020-05-17 05:00:00 11.7 4 Este 17 Nordeste 0 -- -- 86
2020-05-17 04:00:00 11.1 5 Este 15 Nordeste 0 -- -- 84
2020-05-17 03:00:00 11.1 5 Este 15 Sudoeste 0 -- -- 82
2020-05-17 02:00:00 11.8 6 Sur 17 Sudeste 0 -- -- 81
2020-05-17 01:00:00 12.1 6 Sudeste 17 Sudeste 0 -- -- 83
2020-05-17 00:00:00 11.9 6 Sudeste 17 Sur 0 -- -- 82
2020-05-16 23:00:00 11.7 6 Sur 20 Sudeste 0 -- -- 83
2020-05-16 22:00:00 12.3 8 Sudeste 19 Sudeste 0 -- -- 85
2020-05-16 21:00:00 12.7 7 Sudeste 19 Este 0 -- -- 82
2020-05-16 20:00:00 14.1 6 Sur 18 Sudeste 0 -- -- 76
2020-05-16 19:00:00 14.9 5 Sudoeste 17 Este 0 -- -- 74
2020-05-16 18:00:00 14.7 6 Sur 18 Nordeste 0 -- -- 81
2020-05-16 17:00:00 17 5 Sur 17 Noroeste 0 -- -- 70
2020-05-16 16:00:00 20.3 6 Sudeste 17 Este 0 -- -- 54
2020-05-16 15:00:00 17.7 4 Sudeste 15 Sudoeste 0 -- -- 70
2020-05-16 14:00:00 18.1 4 Sur 17 Este 0 -- -- 68
2020-05-16 13:00:00 17.1 4 Sudeste 20 Sudeste 0 -- -- 74
2020-05-16 12:00:00 16.5 5 Este 16 Este 0 -- -- 78
2020-05-16 11:00:00 15.3 4 Este 12 Sudeste 0 -- -- 82
2020-05-16 10:00:00 14.9 5 Este 15 Sudeste 0 -- -- 86
2020-05-16 09:00:00 12.9 6 Este 19 Este 0 -- -- 99
2020-05-16 08:00:00 12.5 5 Sudeste 15 Nordeste 0 -- -- 99
2020-05-16 07:00:00 12.3 6 Sudeste 17 Este 0 -- -- 98
2020-05-16 06:00:00 12.2 5 Sudeste 18 Sudeste 0 -- -- 99
2020-05-16 05:00:00 12.2 5 Sudeste 17 Este 0 -- -- 99
2020-05-16 04:00:00 12.5 8 Sudeste 21 Sudeste 0 -- -- 99
2020-05-16 03:00:00 12.6 6 Sudeste 16 Este 0 -- -- 98
2020-05-16 02:00:00 12.3 5 Sudeste 14 Oeste 0 -- -- 98
2020-05-16 01:00:00 12.6 8 Sudoeste 18 Sudeste 0 -- -- 98
2020-05-16 00:00:00 12.5 8 Sudoeste 21 Sur 0 -- -- 97
2020-05-15 23:00:00 12.7 7 Sur 19 Sur 0 -- -- 97
2020-05-15 22:00:00 12.7 6 Sudoeste 20 Sur 0 -- -- 97
2020-05-15 21:00:00 12.9 5 Sur 21 Sudoeste 0 -- -- 96
2020-05-15 20:00:00 13.3 6 Sur 20 Sur 0 -- -- 93
2020-05-15 19:00:00 13.4 8 Sur 24 Sudeste 0 -- -- 93
2020-05-15 18:00:00 14 6 Sudoeste 19 Oeste 0 -- -- 89
2020-05-15 17:00:00 14.1 9 Sudoeste 23 Oeste 0 -- -- 86
2020-05-15 16:00:00 14.8 6 Sudoeste 19 Sudeste 0 -- -- 85
2020-05-15 15:00:00 13.4 9 Sur 29 Este 0 -- -- 91
2020-05-15 14:00:00 13.3 9 Sur 25 Sudoeste 0.2 -- -- 97
2020-05-15 13:00:00 14.5 7 Sudoeste 21 Sudeste 0 -- -- 89
2020-05-15 12:00:00 14.1 8 Sudoeste 40 Noroeste 0 -- -- 92
2020-05-15 11:00:00 13.5 10 Sur 31 Nordeste 0 -- -- 95
2020-05-15 10:00:00 12.9 8 Nordeste 33 Norte 0 -- -- 97
2020-05-15 09:00:00 12.5 9 Nordeste 28 Noroeste 0 -- -- 93
2020-05-15 08:00:00 12 8 Nordeste 32 Nordeste 0 -- -- 91
2020-05-15 07:00:00 11.1 6 Sudoeste 19 Sudeste 0 -- -- 89
2020-05-15 06:00:00 11.2 8 Sudoeste 29 Este 0 -- -- 85
2020-05-15 05:00:00 11.5 9 Sudoeste 24 Norte 0 -- -- 85
2020-05-15 04:00:00 11.5 10 Sudeste 36 Este 0 -- -- 92
2020-05-15 03:00:00 11.3 8 Sudoeste 30 Este 0 -- -- 81
2020-05-15 02:00:00 11.7 12 Sudoeste 33 Nordeste 0 -- -- 88
2020-05-15 01:00:00 11.6 10 Sudoeste 31 Nordeste 0 -- -- 90
2020-05-15 00:00:00 11.7 9 Nordeste 36 Norte 0 -- -- 92
2020-05-14 23:00:00 12.1 13 Sudeste 36 Norte 0 -- -- 91
2020-05-14 22:00:00 12.2 13 Norte 44 Norte 0 -- -- 91
2020-05-14 21:00:00 12.4 10 Norte 41 Noroeste 0 -- -- 90
2020-05-14 20:00:00 12.7 9 Norte 32 Norte 0 -- -- 84
2020-05-14 19:00:00 12.9 8 Norte 28 Este 0 -- -- 87
2020-05-14 18:00:00 13.6 6 Norte 28 Noroeste 0 -- -- 81
2020-05-14 17:00:00 13.6 8 Norte 23 Norte 0 -- -- 82
2020-05-14 16:00:00 14.5 8 Norte 30 Noroeste 0 -- -- 82
2020-05-14 15:00:00 15.3 10 Norte 34 Norte 0 -- -- 78
2020-05-14 14:00:00 14.7 8 Norte 33 Oeste 0 -- -- 82
2020-05-14 13:00:00 15 9 Norte 31 Norte 0 -- -- 85
2020-05-14 12:00:00 14.7 13 Norte 32 Norte 0 -- -- 83
2020-05-14 11:00:00 16.5 9 Norte 24 Norte 0 -- -- 74
2020-05-14 10:00:00 15.4 9 Norte 31 Noroeste 0 -- -- 77
2020-05-14 09:00:00 12.9 11 Norte 33 Nordeste 0 -- -- 92
2020-05-14 08:00:00 12.3 7 Nordeste 25 Norte 0 -- -- 97
2020-05-14 07:00:00 12 9 Nordeste 29 Noroeste 0 -- -- 94
2020-05-14 06:00:00 12.3 12 Norte 26 Este 0 -- -- 93
2020-05-14 05:00:00 12.1 7 Nordeste 25 Norte 0 -- -- 95
2020-05-14 04:00:00 11.1 8 Norte 19 Nordeste 0 -- -- 96
2020-05-14 03:00:00 10.5 5 Norte 21 Norte 0 -- -- 94
2020-05-14 02:00:00 11 7 Norte 34 Norte 0 -- -- 91
2020-05-14 01:00:00 11.8 12 Norte 36 Norte 0 -- -- 85
2020-05-14 00:00:00 12.2 8 Norte 25 Norte 0 -- -- 91
2020-05-13 23:00:00 12.1 11 Norte 31 Norte 0 -- -- 90
2020-05-13 22:00:00 12.2 12 Norte 36 Este 0 -- -- 86
2020-05-13 21:00:00 12.5 9 Norte 32 Noroeste 0 -- -- 92
2020-05-13 20:00:00 13 10 Norte 29 Norte 0 -- -- 86
2020-05-13 19:00:00 13.7 12 Norte 27 Noroeste 0 -- -- 86
2020-05-13 18:00:00 13.9 10 Norte 26 Norte 0 -- -- 85
2020-05-13 17:00:00 13.6 10 Norte 31 Noroeste 0 -- -- 90
2020-05-13 16:00:00 13.8 11 Norte 30 Noroeste 0 -- -- 94
2020-05-13 15:00:00 14.4 8 Noroeste 35 Noroeste 0 -- -- 94
2020-05-13 14:00:00 14.9 10 Norte 33 Noroeste 0 -- -- 92
2020-05-13 13:00:00 15.9 10 Norte 33 Nordeste 0.2 -- -- 88
2020-05-13 12:00:00 17.6 9 Norte 25 Noroeste 0 -- -- 76
2020-05-13 11:00:00 17 8 Norte 25 Norte 0 -- -- 76
2020-05-13 10:00:00 14.9 8 Norte 24 Norte 0 -- -- 96
2020-05-13 09:00:00 13.6 6 Norte 26 Nordeste 0 -- -- 100
2020-05-13 08:00:00 12.7 9 Norte 24 Nordeste 0 -- -- 100
2020-05-13 07:00:00 12.8 11 Norte 31 Norte 0 -- -- 100
2020-05-13 06:00:00 13.1 10 Nordeste 28 Nordeste 0 -- -- 100
2020-05-13 05:00:00 13.4 8 Nordeste 26 Este 0.4 -- -- 100
2020-05-13 04:00:00 13.2 10 Norte 25 Norte 1 -- -- 100
2020-05-13 03:00:00 13.3 7 Norte 29 Norte 1 -- -- 100
2020-05-13 02:00:00 13.5 7 Oeste 28 Norte 0.4 -- -- 100
2020-05-13 01:00:00 13.4 6 Noroeste 25 Nordeste 0 -- -- 100
2020-05-13 00:00:00 13.2 12 Norte 31 Noroeste 0 -- -- 100
2020-05-12 23:00:00 13.4 12 Norte 29 Norte 0 -- -- 100
2020-05-12 22:00:00 13.3 8 Norte 28 Norte 0 -- -- 99
2020-05-12 21:00:00 13.6 11 Norte 34 Norte 0 -- -- 99
2020-05-12 20:00:00 13.9 8 Norte 28 Norte 0 -- -- 97
2020-05-12 19:00:00 14.2 10 Norte 28 Norte 0 -- -- 93
2020-05-12 18:00:00 14.2 12 Norte 36 Norte 0 -- -- 94
2020-05-12 17:00:00 15.3 10 Oeste 28 Norte 0 -- -- 90
2020-05-12 16:00:00 16 7 Nordeste 25 Norte 0 -- -- 86
2020-05-12 15:00:00 16.6 8 Nordeste 30 Norte 0 -- -- 80
2020-05-12 14:00:00 17.2 8 Norte 29 Nordeste 0 -- -- 75
2020-05-12 13:00:00 16.5 9 Norte 33 Norte 0 -- -- 75
2020-05-12 12:00:00 16.2 11 Norte 27 Norte 0 -- -- 76
2020-05-12 11:00:00 14.1 11 Noroeste 27 Norte 0 -- -- 88
2020-05-12 10:00:00 13.8 9 Norte 25 Norte 0 -- -- 91
2020-05-12 09:00:00 14 6 Norte 25 Nordeste 0 -- -- 85
2020-05-12 08:00:00 12.6 5 Norte 32 Nordeste 0 -- -- 94
2020-05-12 07:00:00 12.6 6 Norte 25 Noroeste 0 -- -- 94
2020-05-12 06:00:00 12.6 9 Nordeste 31 Nordeste 0 -- -- 94
2020-05-12 05:00:00 12.4 9 Norte 24 Nordeste 0 -- -- 93
2020-05-12 04:00:00 12.4 8 Norte 24 Nordeste 0 -- -- 92
2020-05-12 03:00:00 12.4 9 Norte 26 Norte 0 -- -- 90
2020-05-12 02:00:00 12.7 11 Norte 31 Norte 0 -- -- 92
2020-05-12 01:00:00 12.8 8 Nordeste 24 Noroeste 0 -- -- 93
2020-05-12 00:00:00 12.9 7 Noroeste 26 Norte 0 -- -- 92
2020-05-11 23:00:00 13.1 8 Norte 24 Noroeste 0 -- -- 95
2020-05-11 22:00:00 13.2 8 Norte 28 Noroeste 0 -- -- 97
2020-05-11 21:00:00 14.1 6 Noroeste 33 Noroeste 0 -- -- 98
2020-05-11 20:00:00 15.1 9 Norte 33 Norte 0 -- -- 98
2020-05-11 19:00:00 15.7 10 Nordeste 32 Nordeste 0 -- -- 96
2020-05-11 18:00:00 20.2 10 Norte 25 Norte 0 -- -- 68
2020-05-11 17:00:00 22.1 12 Norte 31 Norte 0 -- -- 58
2020-05-11 16:00:00 21.6 10 Norte 27 Noroeste 0 -- -- 60
2020-05-11 15:00:00 21.6 10 Norte 25 Norte 0 -- -- 59
2020-05-11 14:00:00 21.6 9 Noroeste 22 Noroeste 0 -- -- 63
2020-05-11 13:00:00 20.4 8 Nordeste 27 Noroeste 0 -- -- 67
2020-05-11 12:00:00 20 12 Norte 23 Norte 0 -- -- 71
2020-05-11 11:00:00 17.8 6 Norte 19 Norte 0 -- -- 80
2020-05-11 10:00:00 16.4 8 Norte 22 Noroeste 0 -- -- 85
2020-05-11 09:00:00 14.6 6 Norte 17 Noroeste 0 -- -- 96
2020-05-11 08:00:00 13.9 4 Noroeste 20 Norte 0 -- -- 98
2020-05-11 07:00:00 13.7 5 Norte 13 Noroeste 0 -- -- 98
2020-05-11 06:00:00 13.8 5 Norte 18 Norte 0 -- -- 98
2020-05-11 05:00:00 13.8 8 Norte 22 Norte 0 -- -- 98
2020-05-11 04:00:00 13.8 5 Nordeste 17 Norte 0 -- -- 99
2020-05-11 03:00:00 13.8 3 Noroeste 13 Nordeste 0 -- -- 99
2020-05-11 02:00:00 13.7 7 Norte 16 Norte 0 -- -- 99
2020-05-11 01:00:00 13.9 5 Oeste 16 Sudeste 0 -- -- 99
2020-05-11 00:00:00 13.9 6 Sudoeste 13 Sur 0 -- -- 99
2020-05-10 23:00:00 13.9 4 Sur 15 Oeste 0 -- -- 98
2020-05-10 22:00:00 13.9 5 Sur 19 Este 0 -- -- 98
2020-05-10 21:00:00 14.1 4 Sudoeste 14 Noroeste 0 -- -- 97
2020-05-10 20:00:00 14.3 5 Sudoeste 23 Sur 0 -- -- 96
2020-05-10 19:00:00 14.8 7 Sudoeste 23 Sur 0 -- -- 94
2020-05-10 18:00:00 15.5 7 Sudoeste 30 Norte 0 -- -- 91
2020-05-10 17:00:00 16 8 Norte 31 Nordeste 0 -- -- 93
2020-05-10 16:00:00 17.5 8 Norte 24 Norte 0 -- -- 85
2020-05-10 15:00:00 19.5 8 Norte 20 Norte 0 -- -- 74
2020-05-10 14:00:00 18.6 6 Nordeste 22 Este 0 -- -- 75
2020-05-10 13:00:00 18.4 7 Norte 18 Norte 0 -- -- 75
2020-05-10 12:00:00 17.2 9 Norte 20 Norte 0 -- -- 75
2020-05-10 11:00:00 15.6 6 Norte 22 Noroeste 0 -- -- 89
2020-05-10 10:00:00 15.1 6 Norte 14 Nordeste 0 -- -- 88
2020-05-10 09:00:00 13.6 6 Norte 16 Norte 0 -- -- 100
2020-05-10 08:00:00 12.9 4 Sur 15 Noroeste 0 -- -- 100
2020-05-10 07:00:00 13 4 Sur 17 Norte 0 -- -- 100
2020-05-10 06:00:00 13.1 5 Nordeste 18 Este 0 -- -- 100
2020-05-10 05:00:00 13.5 5 Sur 15 Nordeste 0 -- -- 100
2020-05-10 04:00:00 13.5 5 Sur 19 Sudeste 0 -- -- 100
2020-05-10 03:00:00 13.4 7 Sur 13 Sur 0 -- -- 100
2020-05-10 02:00:00 13.5 6 Sur 14 Este 0 -- -- 100
2020-05-10 01:00:00 13.6 5 Sudoeste 15 Nordeste 0 -- -- 100
2020-05-10 00:00:00 13.7 5 Sudeste 18 Nordeste 0 -- -- 100
2020-05-09 23:00:00 13.7 5 Sudoeste 15 Norte 0 -- -- 99
2020-05-09 22:00:00 14.2 8 Sudoeste 31 Oeste 0 -- -- 98
2020-05-09 21:00:00 14.1 5 Sudeste 22 Norte 0 -- -- 98
2020-05-09 20:00:00 14.5 6 Norte 22 Norte 0 -- -- 96
2020-05-09 19:00:00 14.9 6 Norte 22 Norte 0 -- -- 92
2020-05-09 18:00:00 15.4 5 Nordeste 24 Norte 0 -- -- 94
2020-05-09 17:00:00 16 8 Norte 19 Norte 0 -- -- 92
2020-05-09 16:00:00 16.1 6 Sudeste 19 Norte 0 -- -- 93
2020-05-09 15:00:00 16.2 6 Oeste 18 Norte 0 -- -- 95
2020-05-09 14:00:00 16.2 9 Norte 22 Nordeste 0 -- -- 99
2020-05-09 13:00:00 15.1 6 Nordeste 25 Nordeste 5.4 -- -- 98
2020-05-09 12:00:00 15.9 9 Norte 21 Nordeste 3 -- -- 97
2020-05-09 11:00:00 15.9 6 Norte 19 Norte 0 -- -- 94
2020-05-09 10:00:00 16.3 6 Norte 16 Norte 0 -- -- 88
2020-05-09 09:00:00 15.8 5 Norte 14 Noroeste 0 -- -- 85
2020-05-09 08:00:00 13.5 12 Noroeste 17 Noroeste 0 -- -- 83
2020-05-09 07:00:00 12.9 9 Noroeste 16 Noroeste 0 -- -- 75
2020-05-09 06:00:00 12.8 9 Norte 17 Noroeste 0 -- -- 71
2020-05-09 05:00:00 13 12 Noroeste 15 Noroeste 0 -- -- 70
2020-05-09 04:00:00 12.8 11 Norte 14 Noroeste 0 -- -- 78
2020-05-09 03:00:00 12.8 11 Noroeste 14 Noroeste 0 -- -- 84
2020-05-09 02:00:00 12.6 7 Norte 10 Noroeste 0 -- -- 86
2020-05-09 01:00:00 13.1 3 Noroeste 7 Sur 0 -- -- 87
2020-05-09 00:00:00 13.1 4 Oeste 10 Norte 0 -- -- 86
2020-05-08 23:00:00 13.4 3 Noroeste 5 Norte 0 -- -- 85
2020-05-08 22:00:00 13.4 2 Noroeste 12 Noroeste 0 -- -- 84
2020-05-08 21:00:00 14.7 6 Noroeste 12 Noroeste 0 -- -- 85
2020-05-08 20:00:00 17.6 4 Norte 15 Norte 0 -- -- 73
2020-05-08 19:00:00 19 8 Norte 17 Norte 0 -- -- 69
2020-05-08 18:00:00 20.1 6 Norte 17 Norte 0 -- -- 62
2020-05-08 17:00:00 21.1 7 Norte 16 Norte 0 -- -- 57
2020-05-08 16:00:00 21 5 Norte 15 Sur 0 -- -- 62
2020-05-08 15:00:00 21.3 5 Sudeste 14 Sur 0 -- -- 63
2020-05-08 14:00:00 19.3 5 Sur 16 Este 0 -- -- 70
2020-05-08 13:00:00 18.6 6 Norte 18 Nordeste 0 -- -- 74
2020-05-08 12:00:00 17 6 Norte 17 Noroeste 0 -- -- 80
2020-05-08 11:00:00 17.3 5 Noroeste 16 Norte 0 -- -- 76
2020-05-08 10:00:00 15.7 4 Norte 15 Este 0 -- -- 76
2020-05-08 09:00:00 13.8 3 Noroeste 6 Sudoeste 0 -- -- 91
2020-05-08 08:00:00 12.5 2 Este 6 Noroeste 0 -- -- 97
2020-05-08 07:00:00 11.9 2 Sur 9 Sur 0 -- -- 95
2020-05-08 06:00:00 12.5 3 Noroeste 9 Norte 0 -- -- 97
2020-05-08 05:00:00 12.4 3 Noroeste 11 Noroeste 0 -- -- 97
2020-05-08 04:00:00 12.4 6 Noroeste 11 Norte 0 -- -- 95
2020-05-08 03:00:00 13.1 4 Norte 12 Norte 0 -- -- 95
2020-05-08 02:00:00 13.5 3 Este 7 Sudeste 0 -- -- 95
2020-05-08 01:00:00 13.6 3 Sur 14 Sudeste 0 -- -- 96
2020-05-08 00:00:00 13.9 4 Sudeste 15 Sudeste 0 -- -- 96
2020-05-07 23:00:00 14.1 4 Sur 14 Nordeste 0 -- -- 96
2020-05-07 22:00:00 13.9 6 Noroeste 18 Nordeste 0 -- -- 94
2020-05-07 21:00:00 14.3 4 Sur 15 Nordeste 0 -- -- 93
2020-05-07 20:00:00 14.8 5 Sudeste 18 Este 0 -- -- 89
2020-05-07 19:00:00 15.6 4 Noroeste 17 Nordeste 0 -- -- 82
2020-05-07 18:00:00 17.2 4 Este 23 Noroeste 0 -- -- 75
2020-05-07 17:00:00 19.3 6 Norte 19 Norte 0 -- -- 65
2020-05-07 16:00:00 19.4 8 Norte 19 Norte 0 -- -- 62
2020-05-07 15:00:00 19.6 7 Norte 19 Norte 0 -- -- 59
2020-05-07 14:00:00 19.7 8 Noroeste 23 Norte 0 -- -- 65
2020-05-07 13:00:00 18.3 7 Norte 17 Este 0 -- -- 68
2020-05-07 12:00:00 17.4 5 Norte 19 Norte 0 -- -- 71
2020-05-07 11:00:00 16.7 4 Norte 13 Norte 0 -- -- 68
2020-05-07 10:00:00 15.4 6 Noroeste 13 Norte 0 -- -- 83
2020-05-07 09:00:00 13.5 3 Sudoeste 12 Nordeste 0 -- -- 92
2020-05-07 08:00:00 12.8 4 Sudeste 18 Norte 0 -- -- 97
2020-05-07 07:00:00 12.4 3 Nordeste 14 Norte 0 -- -- 96
2020-05-07 06:00:00 12.6 3 Norte 11 Norte 0 -- -- 96
2020-05-07 05:00:00 12.9 3 Sur 13 Nordeste 0 -- -- 96
2020-05-07 04:00:00 13 5 Este 16 Norte 0 -- -- 96
2020-05-07 03:00:00 13.1 3 Nordeste 10 Norte 0 -- -- 96
2020-05-07 02:00:00 13.3 3 Sur 9 Sur 0 -- -- 96
2020-05-07 01:00:00 13.5 3 Este 13 Este 0 -- -- 97
2020-05-07 00:00:00 13.9 5 Sudeste 15 Norte 0 -- -- 97
2020-05-06 23:00:00 14.1 5 Sudeste 14 Oeste 0 -- -- 96
2020-05-06 22:00:00 14.1 4 Sur 15 Sudeste 0 -- -- 94
2020-05-06 21:00:00 14.5 5 Sur 12 Nordeste 0 -- -- 93
2020-05-06 20:00:00 15 4 Norte 10 Sur 0 -- -- 90
2020-05-06 19:00:00 15.9 3 Sudeste 14 Este 0 -- -- 84
2020-05-06 18:00:00 17.6 4 Oeste 13 Sudeste 0 -- -- 76
2020-05-06 17:00:00 18.3 5 Sur 18 Este 0 -- -- 73
2020-05-06 16:00:00 18.5 5 Este 16 Sur 0 -- -- 71
2020-05-06 15:00:00 18.6 5 Oeste 15 Este 0 -- -- 70
2020-05-06 14:00:00 17.2 6 Este 17 Sudeste 0 -- -- 74
2020-05-06 13:00:00 16.7 6 Este 13 Este 0 -- -- 75
2020-05-06 12:00:00 16.3 3 Sudeste 15 Sudeste 0 -- -- 76
2020-05-06 11:00:00 15.7 6 Sudeste 15 Sudeste 0 -- -- 84
2020-05-06 10:00:00 14.7 5 Este 17 Este 0 -- -- 91
2020-05-06 09:00:00 13.4 6 Este 13 Nordeste 0 -- -- 97
2020-05-06 08:00:00 12.9 3 Sudoeste 8 Sudoeste 0 -- -- 97
2020-05-06 07:00:00 12.8 2 Sudeste 10 Sudoeste 0 -- -- 96
2020-05-06 06:00:00 12.9 3 Sudeste 8 Oeste 0 -- -- 97
2020-05-06 05:00:00 12.8 4 Sur 10 Sur 0 -- -- 96
2020-05-06 04:00:00 12.9 3 Este 15 Este 0 -- -- 95
2020-05-06 03:00:00 13.2 4 Sudeste 12 Sudeste 0 -- -- 96
2020-05-06 02:00:00 13.4 6 Sudeste 13 Sudeste 0 -- -- 95
2020-05-06 01:00:00 13.7 6 Este 15 Sudeste 0 -- -- 94
2020-05-06 00:00:00 13.8 4 Sudeste 11 Norte 0 -- -- 93
2020-05-05 23:00:00 14 4 Sudeste 12 Sudeste 0 -- -- 92
2020-05-05 22:00:00 14.2 2 Sudeste 9 Este 0 -- -- 90
2020-05-05 21:00:00 14.4 3 Sudeste 12 Este 0 -- -- 88
2020-05-05 20:00:00 15.4 2 Este 11 Nordeste 0 -- -- 81
2020-05-05 19:00:00 17.9 4 Sudoeste 18 Norte 0 -- -- 71
2020-05-05 18:00:00 18.5 6 Norte 17 Nordeste 0 -- -- 62
2020-05-05 17:00:00 19.3 5 Noroeste 14 Este 0 -- -- 56
2020-05-05 16:00:00 19.4 4 Sudoeste 17 Este 0 -- -- 64
2020-05-05 15:00:00 19.6 6 Sudeste 22 Este 0 -- -- 66
2020-05-05 14:00:00 18.9 8 Este 23 Sudeste 0 -- -- 63
2020-05-05 13:00:00 17.9 6 Este 17 Sudeste 0 -- -- 64
2020-05-05 12:00:00 16.2 5 Nordeste 18 Nordeste 0 -- -- 75
2020-05-05 11:00:00 15.6 5 Oeste 13 Norte 0.2 -- -- 76
2020-05-05 10:00:00 14.5 5 Norte 13 Noroeste 0 -- -- 86
2020-05-05 09:00:00 12.8 6 Norte 14 Norte 0 -- -- 98
2020-05-05 08:00:00 11.1 9 Noroeste 15 Noroeste 0 -- -- 99
2020-05-05 07:00:00 10.9 5 Norte 12 Noroeste 0 -- -- 97
2020-05-05 06:00:00 11.5 4 Noroeste 8 Norte 0 -- -- 97
2020-05-05 05:00:00 11.6 4 Noroeste 9 Noroeste 0 -- -- 96
2020-05-05 04:00:00 11.5 3 Sudoeste 8 Sudoeste 0 -- -- 93
2020-05-05 03:00:00 12 3 Sudoeste 9 Sudoeste 0 -- -- 95
2020-05-05 02:00:00 12.4 5 Este 8 Nordeste 0 -- -- 95
2020-05-05 01:00:00 12.9 3 Este 9 Este 0 -- -- 94
2020-05-05 00:00:00 13 4 Este 9 Este 0 -- -- 95
2020-05-04 23:00:00 13.2 0 Calma 13 Norte 0 -- -- 96
2020-05-04 22:00:00 13.2 5 Nordeste 13 Norte 0 -- -- 96
2020-05-04 21:00:00 13.7 3 Nordeste 12 Este 0 -- -- 97
2020-05-04 20:00:00 13.9 4 Norte 10 Nordeste 0 -- -- 96
2020-05-04 19:00:00 14.3 2 Sudeste 8 Norte 0 -- -- 96
2020-05-04 18:00:00 14.4 3 Este 14 Noroeste 0 -- -- 96
2020-05-04 17:00:00 14.6 4 Nordeste 11 Noroeste 1.4 -- -- 96
2020-05-04 16:00:00 14.9 2 Sudeste 8 Sudeste 0.8 -- -- 97
2020-05-04 15:00:00 14.9 2 Sudeste 11 Sudeste 0.6 -- -- 96
2020-05-04 14:00:00 14.6 5 Este 18 Este 0.4 -- -- 95
2020-05-04 13:00:00 15.1 4 Este 22 Sudeste 0 -- -- 94
2020-05-04 12:00:00 15.6 9 Sudeste 21 Sudeste 0 -- -- 90
2020-05-04 11:00:00 15.2 5 Este 14 Este 0 -- -- 89
2020-05-04 10:00:00 15.2 5 Este 12 Sudeste 0 -- -- 87
2020-05-04 09:00:00 14.6 5 Noroeste 20 Noroeste 0 -- -- 83
2020-05-04 08:00:00 13.2 10 Noroeste 30 Noroeste 0 -- -- 87
2020-05-04 07:00:00 13.3 19 Noroeste 33 Noroeste 0 -- -- 83
2020-05-04 06:00:00 13.4 14 Noroeste 38 Noroeste 0 -- -- 78
2020-05-04 05:00:00 13.8 22 Noroeste 43 Noroeste 0 -- -- 81
2020-05-04 04:00:00 14.5 22 Noroeste 47 Noroeste 0 -- -- 69
2020-05-04 03:00:00 14.5 26 Noroeste 45 Noroeste 0 -- -- 68
2020-05-04 02:00:00 14.1 23 Noroeste 53 Noroeste 0 -- -- 80
2020-05-04 01:00:00 14.4 32 Noroeste 49 Noroeste 0 -- -- 92
2020-05-04 00:00:00 15 25 Noroeste 57 Noroeste 0 -- -- 88
2020-05-03 23:00:00 15.3 35 Noroeste 55 Oeste 0 -- -- 89
2020-05-03 22:00:00 15.4 38 Noroeste 54 Noroeste 0 -- -- 90
2020-05-03 21:00:00 15.2 36 Noroeste 54 Noroeste 0 -- -- 89
2020-05-03 20:00:00 17.4 19 Noroeste 39 Noroeste 0 -- -- 72
2020-05-03 19:00:00 21.2 15 Noroeste 33 Noroeste 0 -- -- 57
2020-05-03 18:00:00 22.6 15 Noroeste 30 Noroeste 0 -- -- 50
2020-05-03 17:00:00 22.4 7 Norte 16 Nordeste 0 -- -- 55
2020-05-03 16:00:00 22.2 4 Nordeste 15 Sur 0 -- -- 62
2020-05-03 15:00:00 23.3 7 Sudeste 18 Sudeste 0 -- -- 59
2020-05-03 14:00:00 22.3 10 Sudeste 18 Sur 0 -- -- 62
2020-05-03 13:00:00 19.9 5 Norte 13 Sudeste 0 -- -- 70
2020-05-03 12:00:00 19.6 5 Sudeste 15 Sudeste 0 -- -- 71
2020-05-03 11:00:00 18.3 8 Sudeste 16 Sur 0 -- -- 74
2020-05-03 10:00:00 17.1 7 Sudeste 15 Sur 0 -- -- 72
2020-05-03 09:00:00 15.5 4 Sudeste 11 Sur 0 -- -- 53
2020-05-03 08:00:00 14 7 Sudeste 19 Norte 0 -- -- 38
2020-05-03 07:00:00 17 9 Noroeste 17 Nordeste 0 -- -- 23
2020-05-03 06:00:00 15.5 8 Noroeste 14 Norte 0 -- -- 20
2020-05-03 05:00:00 12.3 10 Norte 15 Nordeste 0 -- -- 89
2020-05-03 04:00:00 13.8 8 Norte 14 Norte 0 -- -- 79
2020-05-03 03:00:00 18.1 4 Norte 13 Noroeste 0 -- -- 21
2020-05-03 02:00:00 17.1 4 Norte 23 Norte 0 -- -- 22
2020-05-03 01:00:00 15 5 Sur 13 Sudoeste 0 -- -- 25
2020-05-03 00:00:00 13.1 4 Nordeste 14 Norte 0 -- -- 85
2020-05-02 23:00:00 13.5 9 Norte 18 Norte 0 -- -- 95
2020-05-02 22:00:00 14.5 16 Norte 22 Norte 0 -- -- 92
2020-05-02 21:00:00 16.4 3 Sudoeste 10 Oeste 0 -- -- 68
2020-05-02 20:00:00 20.2 3 Norte 15 Norte 0 -- -- 70
2020-05-02 19:00:00 21.8 3 Sudeste 11 Sudeste 0 -- -- 65
2020-05-02 18:00:00 21.8 7 Sur 14 Sur 0 -- -- 67
2020-05-02 17:00:00 22.6 8 Sur 14 Sudeste 0 -- -- 62
2020-05-02 16:00:00 23.2 9 Sur 18 Sudeste 0 -- -- 62
2020-05-02 15:00:00 22.5 9 Sudeste 19 Sur 0 -- -- 64
2020-05-02 14:00:00 21.1 8 Sur 19 Sur 0 -- -- 69
2020-05-02 13:00:00 20.6 12 Sudeste 20 Sur 0 -- -- 70
2020-05-02 12:00:00 19.9 9 Sur 17 Sudeste 0 -- -- 73
2020-05-02 11:00:00 18 6 Sur 13 Sudeste 0 -- -- 82
2020-05-02 10:00:00 16.3 9 Sudeste 15 Sudeste 0 -- -- 87
2020-05-02 09:00:00 13.7 5 Sudeste 9 Norte 0 -- -- 99
2020-05-02 08:00:00 12.5 2 Nordeste 19 Noroeste 0 -- -- 100
2020-05-02 07:00:00 12.8 17 Norte 27 Noroeste 0 -- -- 99
2020-05-02 06:00:00 13.2 9 Noroeste 17 Noroeste 0 -- -- 98
2020-05-02 05:00:00 13.2 6 Norte 19 Norte 0 -- -- 98
2020-05-02 04:00:00 13.2 4 Norte 13 Noroeste 0 -- -- 96
2020-05-02 03:00:00 13.1 2 Sudoeste 6 Este 0 -- -- 94
2020-05-02 02:00:00 13.5 3 Este 12 Este 0 -- -- 96
2020-05-02 01:00:00 14 4 Sur 11 Sudeste 0 -- -- 96
2020-05-02 00:00:00 14.2 3 Este 10 Este 0 -- -- 96
2020-05-01 23:00:00 14.1 4 Sudeste 13 Este 0 -- -- 96
2020-05-01 22:00:00 14.3 4 Sudeste 13 Nordeste 0 -- -- 95
2020-05-01 21:00:00 14.9 2 Este 12 Norte 0 -- -- 91
2020-05-01 20:00:00 15.7 3 Noroeste 11 Norte 0 -- -- 88
2020-05-01 19:00:00 17.5 4 Norte 9 Nordeste 0 -- -- 81
2020-05-01 18:00:00 19.4 3 Norte 9 Norte 0 -- -- 76
2020-05-01 17:00:00 19.7 4 Sudeste 10 Norte 0 -- -- 74
2020-05-01 16:00:00 19.9 5 Norte 15 Sudeste 0 -- -- 72
2020-05-01 15:00:00 20.9 8 Sudeste 19 Sudeste 0 -- -- 71
2020-05-01 14:00:00 18.7 7 Norte 15 Nordeste 0 -- -- 76
2020-05-01 13:00:00 19.3 6 Norte 13 Sur 0 -- -- 70
2020-05-01 12:00:00 19.4 7 Sudeste 17 Sudeste 0 -- -- 66
2020-05-01 11:00:00 17.9 8 Sur 14 Sudeste 0 -- -- 75
2020-05-01 10:00:00 17.8 7 Sudeste 12 Sudeste 0 -- -- 58
2020-05-01 09:00:00 13.5 4 Sudoeste 16 Nordeste 0 -- -- 74
2020-05-01 08:00:00 12 3 Oeste 9 Sudeste 0 -- -- 95
2020-05-01 07:00:00 11.8 4 Sudoeste 12 Sudeste 0 -- -- 91
2020-05-01 06:00:00 11.6 4 Sur 13 Sudoeste 0 -- -- 90
2020-05-01 05:00:00 12.3 3 Sur 9 Sudoeste 0 -- -- 95
2020-05-01 04:00:00 12.2 5 Sur 13 Este 0 -- -- 93
2020-05-01 03:00:00 12.5 2 Sur 10 Sudeste 0 -- -- 95
2020-05-01 02:00:00 12.3 5 Sudeste 18 Sudoeste 0 -- -- 94
2020-05-01 01:00:00 12.5 5 Sudeste 15 Sudeste 0 -- -- 94
2020-05-01 00:00:00 12.9 4 Sudeste 13 Nordeste 0 -- -- 94
2020-04-30 23:00:00 13.6 4 Sudeste 12 Este 0 -- -- 95
2020-04-30 22:00:00 13.9 4 Sudeste 12 Nordeste 0 -- -- 94
2020-04-30 21:00:00 14.2 4 Sudeste 14 Este 0 -- -- 92
2020-04-30 20:00:00 15.2 5 Sudeste 10 Sudeste 0 -- -- 85
2020-04-30 19:00:00 17.6 4 Sudeste 14 Sudeste 0 -- -- 77
2020-04-30 18:00:00 18.6 5 Sudeste 13 Este 0 -- -- 75
2020-04-30 17:00:00 18.8 6 Sudeste 14 Sur 0 -- -- 74
2020-04-30 16:00:00 17.9 7 Sudeste 23 Sudeste 0 -- -- 76
2020-04-30 15:00:00 17.6 7 Sudeste 17 Sudeste 0 -- -- 77
2020-04-30 14:00:00 17.8 8 Sudeste 18 Nordeste 0 -- -- 75
2020-04-30 13:00:00 16.7 10 Sur 21 Sudeste 0 -- -- 79
2020-04-30 12:00:00 16.1 5 Sudeste 16 Este 0 -- -- 82
2020-04-30 11:00:00 15.7 8 Sudeste 19 Sudeste 0 -- -- 84
2020-04-30 10:00:00 14.7 8 Sur 17 Sur 0 -- -- 86
2020-04-30 09:00:00 12.8 6 Sudeste 15 Sudeste 0 -- -- 99
2020-04-30 08:00:00 12.1 3 Sudeste 12 Sudeste 0 -- -- 100
2020-04-30 07:00:00 12.1 4 Sudeste 13 Este 0 -- -- 99
2020-04-30 06:00:00 12.2 3 Sudoeste 18 Este 0 -- -- 99
2020-04-30 05:00:00 11.8 4 Este 13 Nordeste 0 -- -- 99
2020-04-30 04:00:00 11.9 4 Sudeste 12 Este 0 -- -- 98
2020-04-30 03:00:00 11.9 3 Sudoeste 12 Nordeste 0 -- -- 98
2020-04-30 02:00:00 12.4 3 Sudeste 14 Este 0 -- -- 98
2020-04-30 01:00:00 12.4 7 Este 22 Nordeste 0 -- -- 98
2020-04-30 00:00:00 12.6 4 Este 14 Sudeste 0 -- -- 97
2020-04-29 23:00:00 12.6 5 Sudeste 16 Nordeste 0 -- -- 97
2020-04-29 22:00:00 12.8 5 Sur 18 Este 0 -- -- 96
2020-04-29 21:00:00 13 5 Este 21 Nordeste 0 -- -- 95
2020-04-29 20:00:00 13.8 4 Sudeste 16 Sudeste 0 -- -- 90
2020-04-29 19:00:00 14.6 5 Sudeste 16 Este 0 -- -- 87
2020-04-29 18:00:00 19 5 Sudeste 16 Sudoeste 0 -- -- 68
2020-04-29 17:00:00 18.6 6 Sudeste 17 Sudeste 0 -- -- 71
2020-04-29 16:00:00 16.7 4 Este 21 Este 0 -- -- 80
2020-04-29 15:00:00 17.7 5 Sudeste 20 Sudeste 0 -- -- 72
2020-04-29 14:00:00 16.8 7 Sudeste 18 Sudeste 0 -- -- 75
2020-04-29 13:00:00 16.8 5 Sur 15 Este 0 -- -- 76
2020-04-29 12:00:00 15.7 6 Sur 16 Sudeste 0 -- -- 83
2020-04-29 11:00:00 15.5 5 Sudeste 16 Norte 0 -- -- 84
2020-04-29 10:00:00 14 6 Este 17 Sudeste 0 -- -- 94
2020-04-29 09:00:00 13 5 Este 15 Sudeste 0 -- -- 100
2020-04-29 08:00:00 12.6 6 Sudeste 20 Sudeste 0 -- -- 99
2020-04-29 07:00:00 12.5 3 Sudeste 16 Este 0 -- -- 99
2020-04-29 06:00:00 12.5 4 Sudeste 14 Norte 0 -- -- 99
2020-04-29 05:00:00 12.4 3 Sudoeste 9 Norte 0 -- -- 99
2020-04-29 04:00:00 12.5 6 Este 17 Nordeste 0 -- -- 99
2020-04-29 03:00:00 12.9 6 Sudeste 16 Nordeste 0 -- -- 99
2020-04-29 02:00:00 13 4 Sudeste 14 Nordeste 0 -- -- 99
2020-04-29 01:00:00 13.2 4 Sudeste 15 Nordeste 0 -- -- 99
2020-04-29 00:00:00 13.5 5 Sur 17 Sudeste 0 -- -- 98
2020-04-28 23:00:00 13.5 5 Sudeste 16 Sudeste 0 -- -- 97
2020-04-28 22:00:00 13.7 10 Sudeste 18 Sudeste 0 -- -- 96
2020-04-28 21:00:00 13.8 8 Sudeste 18 Este 0 -- -- 92
2020-04-28 20:00:00 14.5 5 Sur 21 Sudeste 0 -- -- 90
2020-04-28 19:00:00 15.7 11 Sudeste 20 Este 0 -- -- 84
2020-04-28 18:00:00 19.5 5 Este 15 Nordeste 0 -- -- 63
2020-04-28 17:00:00 18.7 5 Este 17 Este 0 -- -- 66
2020-04-28 16:00:00 19.2 6 Nordeste 20 Sudoeste 0 -- -- 64
2020-04-28 15:00:00 18.3 5 Sur 19 Sudeste 0 -- -- 70
2020-04-28 14:00:00 19 8 Sudeste 20 Este 0 -- -- 69
2020-04-28 13:00:00 17.1 5 Sudoeste 14 Sudeste 0 -- -- 75
2020-04-28 12:00:00 15.8 5 Sudeste 14 Sudeste 0 -- -- 82
2020-04-28 11:00:00 15 3 Este 13 Sudeste 0 -- -- 86
2020-04-28 10:00:00 14 4 Sudoeste 13 Nordeste 0 -- -- 93
2020-04-28 09:00:00 12.8 4 Sur 14 Norte 0 -- -- 99
2020-04-28 08:00:00 11.6 4 Norte 9 Norte 0 -- -- 99
2020-04-28 07:00:00 10.9 4 Noroeste 9 Noroeste 0 -- -- 97
2020-04-28 06:00:00 11.8 4 Noroeste 6 Oeste 0 -- -- 98
2020-04-28 05:00:00 11.5 2 Oeste 8 Norte 0 -- -- 97
2020-04-28 04:00:00 11.7 3 Oeste 8 Sudoeste 0 -- -- 95
2020-04-28 03:00:00 11.9 4 Norte 6 Nordeste 0 -- -- 94
2020-04-28 02:00:00 12.2 2 Norte 9 Este 0 -- -- 93
2020-04-28 01:00:00 12.5 3 Sur 15 Norte 0 -- -- 97
2020-04-28 00:00:00 12.7 4 Nordeste 13 Norte 0 -- -- 97
2020-04-27 23:00:00 12.8 5 Este 9 Nordeste 0 -- -- 94
2020-04-27 22:00:00 13.5 5 Norte 14 Norte 0 -- -- 92
2020-04-27 21:00:00 14 5 Norte 17 Norte 0 -- -- 90
2020-04-27 20:00:00 14.9 4 Norte 20 Noroeste 0 -- -- 85
2020-04-27 19:00:00 16.4 6 Noroeste 18 Norte 0 -- -- 80
2020-04-27 18:00:00 17.7 5 Norte 18 Norte 0 -- -- 73
2020-04-27 17:00:00 19.1 6 Norte 20 Noroeste 0 -- -- 66
2020-04-27 16:00:00 20.7 8 Norte 23 Norte 0 -- -- 61
2020-04-27 15:00:00 19.8 5 Norte 20 Norte 0 -- -- 67
2020-04-27 14:00:00 21 8 Noroeste 18 Norte 0 -- -- 59
2020-04-27 13:00:00 19.5 4 Este 18 Nordeste 0 -- -- 63
2020-04-27 12:00:00 18.5 8 Norte 18 Noroeste 0 -- -- 67
2020-04-27 11:00:00 17.9 7 Norte 15 Noroeste 0 -- -- 67
2020-04-27 10:00:00 16 4 Norte 12 Nordeste 0 -- -- 73
2020-04-27 09:00:00 13.5 5 Norte 13 Norte 0 -- -- 85
2020-04-27 08:00:00 12.2 6 Noroeste 12 Noroeste 0 -- -- 98
2020-04-27 07:00:00 11 9 Norte 14 Noroeste 0 -- -- 97
2020-04-27 06:00:00 11.4 10 Norte 15 Noroeste 0 -- -- 97
2020-04-27 05:00:00 11.5 3 Norte 14 Noroeste 0 -- -- 97
2020-04-27 04:00:00 11.6 7 Noroeste 15 Noroeste 0 -- -- 97
2020-04-27 03:00:00 11.3 7 Norte 14 Nordeste 0 -- -- 97
2020-04-27 02:00:00 11.2 7 Norte 14 Noroeste 0 -- -- 96
2020-04-27 01:00:00 10.9 4 Norte 12 Norte 0 -- -- 94
2020-04-27 00:00:00 10.9 7 Norte 13 Noroeste 0 -- -- 92